createdAt,value
2023-10-30T00:04:15.648Z,11.46
2023-10-30T00:09:19.789Z,11.49
2023-10-30T00:14:23.889Z,11.48
2023-10-30T00:19:28.069Z,11.44
2023-10-30T00:24:32.251Z,11.47
2023-10-30T00:29:36.385Z,11.48
2023-10-30T00:34:40.553Z,11.43
2023-10-30T00:39:44.675Z,11.48
2023-10-30T00:44:48.876Z,11.48
2023-10-30T00:49:53.062Z,11.46
2023-10-30T00:54:57.206Z,11.39
2023-10-30T01:00:01.350Z,11.39
2023-10-30T01:05:05.713Z,11.44
2023-10-30T01:10:09.657Z,11.47
2023-10-30T01:15:13.883Z,11.48
2023-10-30T01:20:17.988Z,11.51
2023-10-30T01:25:22.161Z,11.50
2023-10-30T01:30:26.344Z,11.55
2023-10-30T01:35:30.559Z,11.58
2023-10-30T01:40:34.652Z,11.58
2023-10-30T01:45:38.874Z,11.58
2023-10-30T01:50:42.953Z,11.60
2023-10-30T01:55:47.162Z,11.63
2023-10-30T02:00:51.382Z,11.57
2023-10-30T02:05:55.524Z,11.52
2023-10-30T02:10:59.647Z,11.54
2023-10-30T02:16:03.859Z,11.53
2023-10-30T02:21:07.984Z,11.50
2023-10-30T02:26:12.123Z,11.56
2023-10-30T02:31:16.226Z,11.58
2023-10-30T02:36:18.528Z,11.55
2023-10-30T02:41:22.677Z,11.52
2023-10-30T02:46:26.850Z,11.54
2023-10-30T02:51:31.129Z,11.51
2023-10-30T02:56:35.157Z,11.53
2023-10-30T03:01:39.325Z,11.54
2023-10-30T03:06:43.529Z,11.54
2023-10-30T03:11:47.653Z,11.56
2023-10-30T03:16:51.823Z,11.55
2023-10-30T03:21:55.955Z,11.47
2023-10-30T03:27:00.162Z,11.49
2023-10-30T03:32:04.299Z,11.49
2023-10-30T03:37:08.445Z,11.40
2023-10-30T03:42:12.656Z,11.36
2023-10-30T03:47:16.777Z,11.38
2023-10-30T03:52:20.948Z,11.40
2023-10-30T03:57:25.136Z,11.41
2023-10-30T04:02:29.347Z,11.35
2023-10-30T04:07:33.435Z,11.43
2023-10-30T04:12:37.619Z,11.39
2023-10-30T04:17:41.832Z,11.36
2023-10-30T04:22:45.911Z,11.31
2023-10-30T04:27:50.104Z,11.33
2023-10-30T04:32:54.237Z,11.30
2023-10-30T04:37:58.409Z,11.30
2023-10-30T04:43:02.542Z,11.26
2023-10-30T04:48:06.739Z,11.28
2023-10-30T04:53:10.860Z,11.29
2023-10-30T04:58:15.058Z,11.27
2023-10-30T05:03:19.299Z,11.30
2023-10-30T05:08:23.374Z,11.22
2023-10-30T05:13:27.568Z,11.22
2023-10-30T05:18:31.664Z,11.14
2023-10-30T05:23:35.819Z,11.16
2023-10-30T05:28:40.081Z,11.16
2023-10-30T05:33:44.222Z,11.09
2023-10-30T05:38:48.345Z,11.09
2023-10-30T05:43:52.486Z,11.11
2023-10-30T05:48:56.646Z,11.03
2023-10-30T05:54:00.818Z,10.99
2023-10-30T05:59:04.985Z,11.01
2023-10-30T06:04:09.273Z,10.99
2023-10-30T06:09:13.401Z,10.89
2023-10-30T06:14:17.467Z,10.87
2023-10-30T06:19:21.622Z,10.85
2023-10-30T06:24:25.810Z,10.85
2023-10-30T06:29:29.983Z,10.81
2023-10-30T06:34:34.107Z,10.90
2023-10-30T06:39:38.381Z,10.95
2023-10-30T06:44:42.407Z,10.91
2023-10-30T06:49:46.612Z,10.83
2023-10-30T06:54:50.967Z,10.85
2023-10-30T06:59:54.901Z,10.81
2023-10-30T07:04:59.099Z,10.85
2023-10-30T07:10:03.260Z,10.77
2023-10-30T07:15:07.427Z,10.71
2023-10-30T07:20:11.598Z,10.79
2023-10-30T07:25:15.725Z,10.77
2023-10-30T07:30:19.880Z,10.76
2023-10-30T07:35:24.032Z,10.78
2023-10-30T07:40:28.214Z,10.82
2023-10-30T07:45:32.471Z,10.84
2023-10-30T07:50:36.538Z,10.96
2023-10-30T07:55:40.705Z,10.98
2023-10-30T08:00:57.832Z,11.08
2023-10-30T08:05:47.130Z,11.20
2023-10-30T08:10:51.340Z,11.37
2023-10-30T08:15:55.494Z,11.59
2023-10-30T08:21:07.129Z,11.67
2023-10-30T08:26:03.765Z,11.85
2023-10-30T08:31:08.051Z,12.04
2023-10-30T08:36:12.122Z,12.24
2023-10-30T08:41:16.248Z,12.38
2023-10-30T08:46:20.474Z,12.53
2023-10-30T08:56:28.739Z,12.79
2023-10-30T09:01:32.877Z,12.95
2023-10-30T09:06:37.089Z,13.08
2023-10-30T09:11:41.272Z,13.15
2023-10-30T09:16:45.442Z,13.27
2023-10-30T09:21:49.563Z,13.34
2023-10-30T09:26:53.698Z,13.38
2023-10-30T09:31:57.865Z,13.45
2023-10-30T09:37:02.072Z,13.51
2023-10-30T09:42:06.152Z,13.63
2023-10-30T09:47:10.374Z,13.76
2023-10-30T09:52:14.526Z,13.73
2023-10-30T09:57:18.649Z,13.80
2023-10-30T10:02:22.915Z,13.85
2023-10-30T10:07:26.972Z,13.87
2023-10-30T10:17:35.363Z,14.07
2023-10-30T10:22:39.435Z,14.08
2023-10-30T10:27:43.693Z,14.16
2023-10-30T10:32:47.811Z,14.34
2023-10-30T10:37:51.943Z,14.51
2023-10-30T10:42:56.168Z,14.60
2023-10-30T10:48:00.330Z,14.56
2023-10-30T10:53:04.393Z,14.57
2023-10-30T10:58:08.600Z,14.54
2023-10-30T11:03:12.712Z,14.44
2023-10-30T11:08:16.884Z,14.50
2023-10-30T11:13:21.057Z,14.65
2023-10-30T11:18:25.332Z,14.75
2023-10-30T11:23:29.395Z,14.93
2023-10-30T11:28:33.540Z,15.35
2023-10-30T11:33:37.742Z,15.69
2023-10-30T11:38:41.846Z,15.66
2023-10-30T11:43:45.997Z,15.71
2023-10-30T11:48:50.240Z,15.63
2023-10-30T11:53:54.349Z,15.33
2023-10-30T11:58:58.490Z,15.35
2023-10-30T12:04:04.517Z,15.48
2023-10-30T12:09:06.875Z,15.45
2023-10-30T12:14:10.977Z,15.32
2023-10-30T12:19:15.118Z,15.26
2023-10-30T12:24:19.319Z,15.20
2023-10-30T12:29:23.499Z,15.10
2023-10-30T12:34:27.624Z,14.94
2023-10-30T12:39:31.827Z,15.06
2023-10-30T12:44:35.979Z,14.88
2023-10-30T12:49:40.136Z,14.80
2023-10-30T12:54:44.302Z,14.73
2023-10-30T12:59:48.446Z,14.64
2023-10-30T13:04:52.988Z,14.64
2023-10-30T13:09:56.811Z,14.71
2023-10-30T13:15:00.924Z,14.69
2023-10-30T13:20:05.078Z,14.68
2023-10-30T13:25:09.292Z,14.72
2023-10-30T13:30:13.423Z,14.76
2023-10-30T13:35:15.701Z,14.78
2023-10-30T13:40:19.793Z,14.80
2023-10-30T13:45:23.998Z,14.83
2023-10-30T13:50:28.118Z,14.75
2023-10-30T13:55:32.287Z,14.78
2023-10-30T14:00:36.494Z,14.76
2023-10-30T14:05:38.736Z,14.74
2023-10-30T14:10:42.891Z,14.75
2023-10-30T14:15:47.116Z,14.71
2023-10-30T14:20:51.218Z,14.62
2023-10-30T14:25:55.425Z,14.58
2023-10-30T14:30:59.616Z,14.50
2023-10-30T14:36:03.672Z,14.41
2023-10-30T14:41:07.856Z,14.34
2023-10-30T14:46:12.014Z,14.26
2023-10-30T14:51:17.766Z,14.20
2023-10-30T14:56:20.304Z,14.21
2023-10-30T15:01:24.550Z,14.21
2023-10-30T15:11:32.795Z,14.12
2023-10-30T15:16:37.026Z,14.10
2023-10-30T15:21:41.203Z,14.05
2023-10-30T15:26:45.312Z,13.93
2023-10-30T15:31:49.444Z,13.90
2023-10-30T15:36:53.618Z,13.88
2023-10-30T15:41:57.737Z,13.84
2023-10-30T15:47:07.933Z,13.77
2023-10-30T16:02:14.414Z,13.65
2023-10-30T16:07:18.664Z,13.53
2023-10-30T16:12:22.758Z,13.50
2023-10-30T16:17:27.034Z,13.42
2023-10-30T16:22:31.041Z,13.29
2023-10-30T16:27:35.266Z,13.21
2023-10-30T16:32:39.380Z,13.13
2023-10-30T16:37:43.543Z,13.02
2023-10-30T16:42:47.712Z,12.94
2023-10-30T16:47:51.918Z,12.85
2023-10-30T16:52:55.984Z,12.79
2023-10-30T16:58:01.568Z,12.74
2023-10-30T17:03:04.395Z,12.64
2023-10-30T17:08:08.527Z,12.55
2023-10-30T17:13:12.647Z,12.52
2023-10-30T17:18:16.829Z,12.48
2023-10-30T17:23:20.959Z,12.45
2023-10-30T17:28:25.142Z,12.42
2023-10-30T17:33:29.289Z,12.38
2023-10-30T17:38:33.450Z,12.35
2023-10-30T17:43:37.644Z,12.32
2023-10-30T17:48:41.755Z,12.29
2023-10-30T17:53:45.921Z,12.28
2023-10-30T17:58:50.131Z,12.23
2023-10-30T18:03:54.269Z,12.26
2023-10-30T18:08:58.436Z,12.19
2023-10-30T18:14:02.580Z,12.19
2023-10-30T18:19:06.760Z,12.15
2023-10-30T18:24:10.861Z,12.13
2023-10-30T18:29:18.241Z,12.14
2023-10-30T18:34:19.236Z,12.15
2023-10-30T18:39:23.385Z,12.16
2023-10-30T18:44:27.561Z,12.12
2023-10-30T18:49:31.717Z,12.13
2023-10-30T18:54:35.876Z,12.13
2023-10-30T18:59:40.043Z,12.13
2023-10-30T19:04:44.374Z,12.10
2023-10-30T19:09:48.361Z,12.05
2023-10-30T19:14:52.526Z,12.09
2023-10-30T19:19:56.767Z,12.09
2023-10-30T19:25:00.869Z,12.10
2023-10-30T19:30:05.013Z,12.08
2023-10-30T19:35:07.289Z,12.08
2023-10-30T19:40:11.413Z,12.04
2023-10-30T19:45:15.593Z,12.06
2023-10-30T19:50:19.794Z,12.05
2023-10-30T19:55:24.006Z,12.07
2023-10-30T20:00:28.112Z,12.07
2023-10-30T20:05:32.259Z,12.07
2023-10-30T20:10:38.358Z,12.09
2023-10-30T20:15:40.553Z,12.08
2023-10-30T20:20:44.982Z,12.10
2023-10-30T20:25:48.902Z,12.12
2023-10-30T20:30:53.033Z,12.11
2023-10-30T20:35:57.186Z,12.11
2023-10-30T20:41:01.368Z,12.21
2023-10-30T20:46:05.591Z,12.27
2023-10-30T20:51:09.746Z,12.29
2023-10-30T20:56:13.823Z,12.28
2023-10-30T21:01:18.039Z,12.32
2023-10-30T21:06:22.193Z,12.34
2023-10-30T21:11:26.334Z,12.35
2023-10-30T21:16:30.629Z,12.41
2023-10-30T21:21:34.673Z,12.41
2023-10-30T21:26:38.822Z,12.43
2023-10-30T21:31:43.028Z,12.45
2023-10-30T21:36:47.159Z,12.45
2023-10-30T21:41:51.294Z,12.47
2023-10-30T21:46:55.495Z,12.45
2023-10-30T21:51:59.630Z,12.42
2023-10-30T21:57:03.824Z,12.38
2023-10-30T22:02:07.974Z,12.36
2023-10-30T22:07:12.111Z,12.32
2023-10-30T22:12:16.229Z,12.30
2023-10-30T22:17:20.468Z,12.27
2023-10-30T22:22:24.607Z,12.25
2023-10-30T22:27:28.772Z,12.26
2023-10-30T22:32:32.915Z,12.27
2023-10-30T22:37:37.120Z,12.29
2023-10-30T22:42:41.225Z,12.31
2023-10-30T22:47:45.395Z,12.33
2023-10-30T22:52:49.554Z,12.33
2023-10-30T22:57:54.283Z,12.32
2023-10-30T23:02:57.932Z,12.31
2023-10-30T23:08:02.116Z,12.31
2023-10-30T23:13:06.186Z,12.32
2023-10-30T23:18:10.413Z,12.31
2023-10-30T23:23:14.504Z,12.34
2023-10-30T23:28:18.681Z,12.36
2023-10-30T23:33:22.828Z,12.37
2023-10-30T23:38:27.021Z,12.38
2023-10-30T23:43:31.168Z,12.38
2023-10-30T23:48:35.339Z,12.38
2023-10-30T23:53:39.487Z,12.30
2023-10-30T23:58:43.648Z,12.15
